sensor_id;sensor_type;location;lat;lon;timestamp;P1;durP1;ratioP1;P2;durP2;ratioP2
74777;SDS011;63298;53.164;8.610;2023-07-16T00:00:10;0.95;;;0.95;;
74777;SDS011;63298;53.164;8.610;2023-07-16T00:02:37;1.83;;;1.15;;
74777;SDS011;63298;53.164;8.610;2023-07-16T00:05:03;3.03;;;1.20;;
74777;SDS011;63298;53.164;8.610;2023-07-16T00:07:29;1.42;;;1.27;;
74777;SDS011;63298;53.164;8.610;2023-07-16T00:09:54;2.58;;;1.25;;
74777;SDS011;63298;53.164;8.610;2023-07-16T00:12:20;1.63;;;1.02;;
74777;SDS011;63298;53.164;8.610;2023-07-16T00:14:45;1.45;;;1.35;;
74777;SDS011;63298;53.164;8.610;2023-07-16T00:17:13;3.28;;;1.25;;
74777;SDS011;63298;53.164;8.610;2023-07-16T00:19:39;2.60;;;0.93;;
74777;SDS011;63298;53.164;8.610;2023-07-16T00:22:04;1.95;;;1.38;;
74777;SDS011;63298;53.164;8.610;2023-07-16T00:24:30;5.88;;;1.48;;
74777;SDS011;63298;53.164;8.610;2023-07-16T00:26:55;3.15;;;1.67;;
74777;SDS011;63298;53.164;8.610;2023-07-16T00:29:20;3.22;;;1.08;;
74777;SDS011;63298;53.164;8.610;2023-07-16T00:31:46;1.67;;;1.10;;
74777;SDS011;63298;53.164;8.610;2023-07-16T00:34:11;4.25;;;1.42;;
74777;SDS011;63298;53.164;8.610;2023-07-16T00:36:36;2.47;;;1.20;;
74777;SDS011;63298;53.164;8.610;2023-07-16T00:39:02;3.13;;;1.27;;
74777;SDS011;63298;53.164;8.610;2023-07-16T00:41:27;2.17;;;1.60;;
74777;SDS011;63298;53.164;8.610;2023-07-16T00:43:53;4.43;;;2.22;;
74777;SDS011;63298;53.164;8.610;2023-07-16T00:46:18;2.13;;;1.40;;
74777;SDS011;63298;53.164;8.610;2023-07-16T00:48:43;5.40;;;1.65;;
74777;SDS011;63298;53.164;8.610;2023-07-16T00:51:09;4.10;;;1.50;;
74777;SDS011;63298;53.164;8.610;2023-07-16T00:53:34;2.00;;;1.67;;
74777;SDS011;63298;53.164;8.610;2023-07-16T00:56:00;2.70;;;1.15;;
74777;SDS011;63298;53.164;8.610;2023-07-16T00:58:25;6.35;;;1.20;;
74777;SDS011;63298;53.164;8.610;2023-07-16T01:00:51;3.05;;;1.52;;
74777;SDS011;63298;53.164;8.610;2023-07-16T01:03:16;2.88;;;1.38;;
74777;SDS011;63298;53.164;8.610;2023-07-16T01:08:32;4.07;;;1.35;;
74777;SDS011;63298;53.164;8.610;2023-07-16T01:11:03;3.55;;;1.30;;
74777;SDS011;63298;53.164;8.610;2023-07-16T01:13:29;2.92;;;1.38;;
74777;SDS011;63298;53.164;8.610;2023-07-16T01:15:55;2.38;;;1.23;;
74777;SDS011;63298;53.164;8.610;2023-07-16T01:18:21;4.05;;;1.70;;
74777;SDS011;63298;53.164;8.610;2023-07-16T01:20:46;4.85;;;1.50;;
74777;SDS011;63298;53.164;8.610;2023-07-16T01:28:30;4.93;;;1.67;;
74777;SDS011;63298;53.164;8.610;2023-07-16T01:30:57;3.03;;;1.40;;
74777;SDS011;63298;53.164;8.610;2023-07-16T01:33:23;3.75;;;1.17;;
74777;SDS011;63298;53.164;8.610;2023-07-16T01:35:49;3.75;;;1.48;;
74777;SDS011;63298;53.164;8.610;2023-07-16T01:38:16;3.65;;;1.40;;
74777;SDS011;63298;53.164;8.610;2023-07-16T01:40:42;2.33;;;1.20;;
74777;SDS011;63298;53.164;8.610;2023-07-16T01:43:07;5.15;;;1.25;;
74777;SDS011;63298;53.164;8.610;2023-07-16T01:45:32;4.13;;;1.35;;
74777;SDS011;63298;53.164;8.610;2023-07-16T01:50:37;4.70;;;1.45;;
74777;SDS011;63298;53.164;8.610;2023-07-16T01:53:03;2.67;;;1.40;;
74777;SDS011;63298;53.164;8.610;2023-07-16T01:55:28;2.88;;;1.30;;
74777;SDS011;63298;53.164;8.610;2023-07-16T01:57:53;2.25;;;1.20;;
74777;SDS011;63298;53.164;8.610;2023-07-16T02:00:19;2.55;;;1.13;;
74777;SDS011;63298;53.164;8.610;2023-07-16T02:02:44;9.35;;;1.90;;
74777;SDS011;63298;53.164;8.610;2023-07-16T02:05:09;3.60;;;1.50;;
74777;SDS011;63298;53.164;8.610;2023-07-16T02:07:35;2.25;;;1.10;;
74777;SDS011;63298;53.164;8.610;2023-07-16T02:10:00;3.50;;;1.50;;
74777;SDS011;63298;53.164;8.610;2023-07-16T02:12:25;3.30;;;1.10;;
74777;SDS011;63298;53.164;8.610;2023-07-16T02:14:51;1.98;;;1.30;;
74777;SDS011;63298;53.164;8.610;2023-07-16T02:17:16;4.45;;;1.40;;
74777;SDS011;63298;53.164;8.610;2023-07-16T02:19:41;2.97;;;1.38;;
74777;SDS011;63298;53.164;8.610;2023-07-16T02:22:07;2.65;;;1.38;;
74777;SDS011;63298;53.164;8.610;2023-07-16T02:24:32;4.20;;;1.83;;
74777;SDS011;63298;53.164;8.610;2023-07-16T02:26:58;5.57;;;1.70;;
74777;SDS011;63298;53.164;8.610;2023-07-16T02:29:23;3.30;;;1.50;;
74777;SDS011;63298;53.164;8.610;2023-07-16T02:31:48;3.85;;;1.80;;
74777;SDS011;63298;53.164;8.610;2023-07-16T02:34:16;2.13;;;1.42;;
74777;SDS011;63298;53.164;8.610;2023-07-16T02:36:41;1.83;;;1.50;;
74777;SDS011;63298;53.164;8.610;2023-07-16T02:39:07;2.08;;;1.40;;
74777;SDS011;63298;53.164;8.610;2023-07-16T02:41:33;2.30;;;1.27;;
74777;SDS011;63298;53.164;8.610;2023-07-16T02:44:08;2.90;;;1.58;;
74777;SDS011;63298;53.164;8.610;2023-07-16T02:46:34;3.70;;;1.85;;
74777;SDS011;63298;53.164;8.610;2023-07-16T02:49:00;3.40;;;1.58;;
74777;SDS011;63298;53.164;8.610;2023-07-16T02:51:26;5.57;;;1.77;;
74777;SDS011;63298;53.164;8.610;2023-07-16T02:53:51;2.15;;;1.23;;
74777;SDS011;63298;53.164;8.610;2023-07-16T02:56:17;2.10;;;1.33;;
74777;SDS011;63298;53.164;8.610;2023-07-16T02:58:42;3.95;;;1.50;;
74777;SDS011;63298;53.164;8.610;2023-07-16T03:01:09;6.88;;;2.17;;
74777;SDS011;63298;53.164;8.610;2023-07-16T03:03:35;1.75;;;1.45;;
74777;SDS011;63298;53.164;8.610;2023-07-16T03:06:00;7.97;;;1.83;;
74777;SDS011;63298;53.164;8.610;2023-07-16T03:08:26;2.95;;;1.58;;
74777;SDS011;63298;53.164;8.610;2023-07-16T03:10:51;2.15;;;1.40;;
74777;SDS011;63298;53.164;8.610;2023-07-16T03:13:17;1.88;;;1.73;;
74777;SDS011;63298;53.164;8.610;2023-07-16T03:15:42;4.05;;;1.60;;
74777;SDS011;63298;53.164;8.610;2023-07-16T03:18:08;10.18;;;1.73;;
74777;SDS011;63298;53.164;8.610;2023-07-16T03:20:34;2.00;;;1.58;;
74777;SDS011;63298;53.164;8.610;2023-07-16T03:22:59;5.20;;;1.70;;
74777;SDS011;63298;53.164;8.610;2023-07-16T03:25:25;3.80;;;2.00;;
74777;SDS011;63298;53.164;8.610;2023-07-16T03:27:51;6.35;;;1.70;;
74777;SDS011;63298;53.164;8.610;2023-07-16T03:30:16;8.27;;;1.90;;
74777;SDS011;63298;53.164;8.610;2023-07-16T03:32:42;3.33;;;1.85;;
74777;SDS011;63298;53.164;8.610;2023-07-16T03:35:09;6.20;;;1.77;;
74777;SDS011;63298;53.164;8.610;2023-07-16T03:37:34;5.53;;;2.08;;
74777;SDS011;63298;53.164;8.610;2023-07-16T03:40:13;4.60;;;1.52;;
74777;SDS011;63298;53.164;8.610;2023-07-16T03:42:40;6.00;;;1.80;;
74777;SDS011;63298;53.164;8.610;2023-07-16T03:45:06;2.00;;;1.73;;
74777;SDS011;63298;53.164;8.610;2023-07-16T03:47:32;4.20;;;1.70;;
74777;SDS011;63298;53.164;8.610;2023-07-16T03:49:57;6.63;;;2.30;;
74777;SDS011;63298;53.164;8.610;2023-07-16T03:52:23;2.90;;;1.77;;
74777;SDS011;63298;53.164;8.610;2023-07-16T03:54:48;6.20;;;1.90;;
74777;SDS011;63298;53.164;8.610;2023-07-16T03:57:13;2.35;;;1.75;;
74777;SDS011;63298;53.164;8.610;2023-07-16T03:59:39;4.40;;;1.52;;
74777;SDS011;63298;53.164;8.610;2023-07-16T04:02:04;3.08;;;1.70;;
74777;SDS011;63298;53.164;8.610;2023-07-16T04:04:30;4.95;;;1.80;;
74777;SDS011;63298;53.164;8.610;2023-07-16T04:06:55;3.20;;;1.65;;
74777;SDS011;63298;53.164;8.610;2023-07-16T04:09:21;5.43;;;2.13;;
74777;SDS011;63298;53.164;8.610;2023-07-16T04:11:46;2.28;;;1.65;;
74777;SDS011;63298;53.164;8.610;2023-07-16T04:14:11;5.47;;;1.80;;
74777;SDS011;63298;53.164;8.610;2023-07-16T04:16:36;7.13;;;1.88;;
74777;SDS011;63298;53.164;8.610;2023-07-16T04:19:02;4.72;;;2.00;;
74777;SDS011;63298;53.164;8.610;2023-07-16T04:21:27;4.40;;;1.95;;
74777;SDS011;63298;53.164;8.610;2023-07-16T04:23:52;5.78;;;2.10;;
74777;SDS011;63298;53.164;8.610;2023-07-16T04:26:18;9.38;;;2.00;;
74777;SDS011;63298;53.164;8.610;2023-07-16T04:28:43;7.63;;;1.98;;
74777;SDS011;63298;53.164;8.610;2023-07-16T04:31:08;3.15;;;1.70;;
74777;SDS011;63298;53.164;8.610;2023-07-16T04:33:34;4.72;;;1.65;;
74777;SDS011;63298;53.164;8.610;2023-07-16T04:35:59;2.40;;;1.60;;
74777;SDS011;63298;53.164;8.610;2023-07-16T04:38:25;5.25;;;1.60;;
74777;SDS011;63298;53.164;8.610;2023-07-16T04:40:50;10.75;;;2.35;;
74777;SDS011;63298;53.164;8.610;2023-07-16T04:43:15;2.75;;;1.58;;
74777;SDS011;63298;53.164;8.610;2023-07-16T04:45:41;5.85;;;2.00;;
74777;SDS011;63298;53.164;8.610;2023-07-16T04:48:09;7.00;;;1.42;;
74777;SDS011;63298;53.164;8.610;2023-07-16T04:50:34;6.13;;;1.60;;
74777;SDS011;63298;53.164;8.610;2023-07-16T04:52:59;9.07;;;1.77;;
74777;SDS011;63298;53.164;8.610;2023-07-16T04:55:25;6.97;;;1.88;;
74777;SDS011;63298;53.164;8.610;2023-07-16T04:57:50;4.90;;;1.75;;
74777;SDS011;63298;53.164;8.610;2023-07-16T05:00:16;2.47;;;1.48;;
74777;SDS011;63298;53.164;8.610;2023-07-16T05:02:41;4.60;;;1.88;;
74777;SDS011;63298;53.164;8.610;2023-07-16T05:05:07;8.77;;;1.90;;
74777;SDS011;63298;53.164;8.610;2023-07-16T05:07:32;5.47;;;2.03;;
74777;SDS011;63298;53.164;8.610;2023-07-16T05:09:58;7.00;;;1.60;;
74777;SDS011;63298;53.164;8.610;2023-07-16T05:12:23;7.97;;;1.85;;
74777;SDS011;63298;53.164;8.610;2023-07-16T05:14:49;5.07;;;1.55;;
74777;SDS011;63298;53.164;8.610;2023-07-16T05:17:14;4.38;;;2.13;;
74777;SDS011;63298;53.164;8.610;2023-07-16T05:19:40;7.55;;;1.85;;
74777;SDS011;63298;53.164;8.610;2023-07-16T05:22:05;8.32;;;2.15;;
74777;SDS011;63298;53.164;8.610;2023-07-16T05:24:31;5.65;;;1.80;;
74777;SDS011;63298;53.164;8.610;2023-07-16T05:26:57;5.57;;;2.30;;
74777;SDS011;63298;53.164;8.610;2023-07-16T05:29:23;5.55;;;2.05;;
74777;SDS011;63298;53.164;8.610;2023-07-16T05:31:48;3.90;;;1.95;;
74777;SDS011;63298;53.164;8.610;2023-07-16T05:34:14;4.40;;;2.00;;
74777;SDS011;63298;53.164;8.610;2023-07-16T05:36:40;6.30;;;2.28;;
74777;SDS011;63298;53.164;8.610;2023-07-16T05:39:06;7.22;;;2.40;;
74777;SDS011;63298;53.164;8.610;2023-07-16T05:41:32;5.18;;;2.15;;
74777;SDS011;63298;53.164;8.610;2023-07-16T05:43:57;6.78;;;2.53;;
74777;SDS011;63298;53.164;8.610;2023-07-16T05:46:23;5.75;;;2.35;;
74777;SDS011;63298;53.164;8.610;2023-07-16T05:48:48;7.50;;;2.05;;
74777;SDS011;63298;53.164;8.610;2023-07-16T05:51:13;6.50;;;2.28;;
74777;SDS011;63298;53.164;8.610;2023-07-16T05:53:39;6.63;;;2.20;;
74777;SDS011;63298;53.164;8.610;2023-07-16T05:56:04;5.97;;;2.38;;
74777;SDS011;63298;53.164;8.610;2023-07-16T05:58:30;9.02;;;2.40;;
74777;SDS011;63298;53.164;8.610;2023-07-16T06:00:55;6.22;;;2.50;;
74777;SDS011;63298;53.164;8.610;2023-07-16T06:03:20;6.65;;;1.95;;
74777;SDS011;63298;53.164;8.610;2023-07-16T06:05:46;4.05;;;2.03;;
74777;SDS011;63298;53.164;8.610;2023-07-16T06:08:11;4.80;;;2.45;;
74777;SDS011;63298;53.164;8.610;2023-07-16T06:10:37;7.05;;;2.10;;
74777;SDS011;63298;53.164;8.610;2023-07-16T06:13:02;5.63;;;2.55;;
74777;SDS011;63298;53.164;8.610;2023-07-16T06:15:28;9.32;;;2.35;;
74777;SDS011;63298;53.164;8.610;2023-07-16T06:17:53;5.15;;;2.08;;
74777;SDS011;63298;53.164;8.610;2023-07-16T06:20:18;7.57;;;1.88;;
74777;SDS011;63298;53.164;8.610;2023-07-16T06:22:44;6.57;;;2.08;;
74777;SDS011;63298;53.164;8.610;2023-07-16T06:25:09;8.45;;;2.63;;
74777;SDS011;63298;53.164;8.610;2023-07-16T06:27:35;11.40;;;2.13;;
74777;SDS011;63298;53.164;8.610;2023-07-16T06:30:00;3.47;;;1.73;;
74777;SDS011;63298;53.164;8.610;2023-07-16T06:32:25;3.33;;;1.58;;
74777;SDS011;63298;53.164;8.610;2023-07-16T06:34:51;8.15;;;2.20;;
74777;SDS011;63298;53.164;8.610;2023-07-16T06:37:16;11.93;;;2.35;;
74777;SDS011;63298;53.164;8.610;2023-07-16T06:39:41;8.40;;;2.17;;
74777;SDS011;63298;53.164;8.610;2023-07-16T06:42:07;3.85;;;1.70;;
74777;SDS011;63298;53.164;8.610;2023-07-16T06:44:32;6.55;;;1.63;;
74777;SDS011;63298;53.164;8.610;2023-07-16T06:46:58;4.20;;;1.50;;
74777;SDS011;63298;53.164;8.610;2023-07-16T06:49:23;8.75;;;1.60;;
74777;SDS011;63298;53.164;8.610;2023-07-16T06:51:49;1.95;;;1.38;;
74777;SDS011;63298;53.164;8.610;2023-07-16T06:54:14;4.63;;;1.60;;
74777;SDS011;63298;53.164;8.610;2023-07-16T06:56:39;6.10;;;2.28;;
74777;SDS011;63298;53.164;8.610;2023-07-16T06:59:05;4.45;;;1.63;;
74777;SDS011;63298;53.164;8.610;2023-07-16T07:01:30;4.93;;;1.80;;
74777;SDS011;63298;53.164;8.610;2023-07-16T07:03:55;4.43;;;1.70;;
74777;SDS011;63298;53.164;8.610;2023-07-16T07:06:21;5.82;;;2.03;;
74777;SDS011;63298;53.164;8.610;2023-07-16T07:08:47;8.95;;;1.88;;
74777;SDS011;63298;53.164;8.610;2023-07-16T07:11:12;5.05;;;2.17;;
74777;SDS011;63298;53.164;8.610;2023-07-16T07:13:38;4.35;;;2.45;;
74777;SDS011;63298;53.164;8.610;2023-07-16T07:16:03;7.40;;;2.22;;
74777;SDS011;63298;53.164;8.610;2023-07-16T07:18:29;6.10;;;2.58;;
74777;SDS011;63298;53.164;8.610;2023-07-16T07:20:54;6.50;;;2.33;;
74777;SDS011;63298;53.164;8.610;2023-07-16T07:23:20;6.43;;;2.58;;
74777;SDS011;63298;53.164;8.610;2023-07-16T07:25:48;3.75;;;2.50;;
74777;SDS011;63298;53.164;8.610;2023-07-16T07:28:15;6.28;;;2.50;;
74777;SDS011;63298;53.164;8.610;2023-07-16T07:30:40;7.70;;;2.70;;
74777;SDS011;63298;53.164;8.610;2023-07-16T07:33:06;3.83;;;2.20;;
74777;SDS011;63298;53.164;8.610;2023-07-16T07:35:31;4.03;;;2.15;;
74777;SDS011;63298;53.164;8.610;2023-07-16T07:37:56;5.50;;;2.80;;
74777;SDS011;63298;53.164;8.610;2023-07-16T07:40:22;6.07;;;2.45;;
74777;SDS011;63298;53.164;8.610;2023-07-16T07:42:47;5.30;;;2.30;;
74777;SDS011;63298;53.164;8.610;2023-07-16T07:45:13;2.90;;;2.08;;
74777;SDS011;63298;53.164;8.610;2023-07-16T07:47:38;4.95;;;2.40;;
74777;SDS011;63298;53.164;8.610;2023-07-16T07:50:04;3.35;;;2.10;;
74777;SDS011;63298;53.164;8.610;2023-07-16T07:52:29;4.72;;;2.38;;
74777;SDS011;63298;53.164;8.610;2023-07-16T07:54:55;2.97;;;2.28;;
74777;SDS011;63298;53.164;8.610;2023-07-16T07:57:20;9.43;;;2.33;;
74777;SDS011;63298;53.164;8.610;2023-07-16T07:59:46;3.53;;;2.72;;
74777;SDS011;63298;53.164;8.610;2023-07-16T08:02:14;4.10;;;1.92;;
74777;SDS011;63298;53.164;8.610;2023-07-16T08:04:40;7.70;;;2.38;;
74777;SDS011;63298;53.164;8.610;2023-07-16T08:07:05;3.20;;;1.95;;
74777;SDS011;63298;53.164;8.610;2023-07-16T08:09:30;4.10;;;2.17;;
74777;SDS011;63298;53.164;8.610;2023-07-16T08:11:56;5.00;;;2.08;;
74777;SDS011;63298;53.164;8.610;2023-07-16T08:14:21;2.53;;;1.98;;
74777;SDS011;63298;53.164;8.610;2023-07-16T08:16:47;5.72;;;2.08;;
74777;SDS011;63298;53.164;8.610;2023-07-16T08:19:13;6.45;;;2.25;;
74777;SDS011;63298;53.164;8.610;2023-07-16T08:21:38;3.10;;;2.20;;
74777;SDS011;63298;53.164;8.610;2023-07-16T08:24:07;5.65;;;1.90;;
74777;SDS011;63298;53.164;8.610;2023-07-16T08:28:58;4.07;;;2.35;;
74777;SDS011;63298;53.164;8.610;2023-07-16T08:31:23;4.60;;;1.92;;
74777;SDS011;63298;53.164;8.610;2023-07-16T08:33:49;3.50;;;2.00;;
74777;SDS011;63298;53.164;8.610;2023-07-16T08:36:14;4.13;;;2.20;;
74777;SDS011;63298;53.164;8.610;2023-07-16T08:38:40;3.53;;;2.00;;
74777;SDS011;63298;53.164;8.610;2023-07-16T08:41:06;5.45;;;2.13;;
74777;SDS011;63298;53.164;8.610;2023-07-16T08:43:34;3.40;;;1.92;;
74777;SDS011;63298;53.164;8.610;2023-07-16T08:46:00;4.45;;;2.00;;
74777;SDS011;63298;53.164;8.610;2023-07-16T08:48:27;3.85;;;2.42;;
74777;SDS011;63298;53.164;8.610;2023-07-16T08:50:54;3.75;;;1.98;;
74777;SDS011;63298;53.164;8.610;2023-07-16T08:53:22;5.15;;;1.88;;
74777;SDS011;63298;53.164;8.610;2023-07-16T08:55:48;3.95;;;2.20;;
74777;SDS011;63298;53.164;8.610;2023-07-16T08:58:14;5.20;;;2.38;;
74777;SDS011;63298;53.164;8.610;2023-07-16T09:00:40;4.47;;;2.50;;
74777;SDS011;63298;53.164;8.610;2023-07-16T09:03:10;5.40;;;2.22;;
74777;SDS011;63298;53.164;8.610;2023-07-16T09:05:37;8.30;;;2.40;;
74777;SDS011;63298;53.164;8.610;2023-07-16T09:08:03;5.72;;;2.10;;
74777;SDS011;63298;53.164;8.610;2023-07-16T09:10:29;4.47;;;2.28;;
74777;SDS011;63298;53.164;8.610;2023-07-16T09:12:57;2.78;;;2.20;;
74777;SDS011;63298;53.164;8.610;2023-07-16T09:15:23;6.15;;;2.38;;
74777;SDS011;63298;53.164;8.610;2023-07-16T09:17:49;5.18;;;2.33;;
74777;SDS011;63298;53.164;8.610;2023-07-16T09:20:16;6.95;;;2.53;;
74777;SDS011;63298;53.164;8.610;2023-07-16T09:22:41;6.13;;;2.50;;
74777;SDS011;63298;53.164;8.610;2023-07-16T09:25:07;4.65;;;2.50;;
74777;SDS011;63298;53.164;8.610;2023-07-16T09:27:32;8.93;;;3.00;;
74777;SDS011;63298;53.164;8.610;2023-07-16T09:29:58;5.15;;;2.17;;
74777;SDS011;63298;53.164;8.610;2023-07-16T09:32:32;7.53;;;2.70;;
74777;SDS011;63298;53.164;8.610;2023-07-16T09:34:58;5.43;;;2.40;;
74777;SDS011;63298;53.164;8.610;2023-07-16T09:37:27;11.38;;;3.05;;
74777;SDS011;63298;53.164;8.610;2023-07-16T09:39:57;5.68;;;2.40;;
74777;SDS011;63298;53.164;8.610;2023-07-16T09:42:22;4.05;;;2.40;;
74777;SDS011;63298;53.164;8.610;2023-07-16T09:44:48;7.60;;;3.03;;
74777;SDS011;63298;53.164;8.610;2023-07-16T09:47:16;3.95;;;2.30;;
74777;SDS011;63298;53.164;8.610;2023-07-16T09:49:42;6.57;;;2.33;;
74777;SDS011;63298;53.164;8.610;2023-07-16T09:52:07;8.98;;;2.67;;
74777;SDS011;63298;53.164;8.610;2023-07-16T09:54:46;5.45;;;2.40;;
74777;SDS011;63298;53.164;8.610;2023-07-16T09:57:18;4.40;;;2.20;;
74777;SDS011;63298;53.164;8.610;2023-07-16T09:59:45;4.40;;;2.60;;
74777;SDS011;63298;53.164;8.610;2023-07-16T10:02:10;7.22;;;2.28;;
74777;SDS011;63298;53.164;8.610;2023-07-16T10:04:37;4.13;;;2.53;;
74777;SDS011;63298;53.164;8.610;2023-07-16T10:07:03;6.13;;;2.90;;
74777;SDS011;63298;53.164;8.610;2023-07-16T10:14:41;2.85;;;2.25;;
74777;SDS011;63298;53.164;8.610;2023-07-16T10:17:07;5.88;;;2.17;;
74777;SDS011;63298;53.164;8.610;2023-07-16T10:22:31;6.05;;;2.30;;
74777;SDS011;63298;53.164;8.610;2023-07-16T10:24:57;7.68;;;2.03;;
74777;SDS011;63298;53.164;8.610;2023-07-16T10:27:33;6.07;;;2.58;;
74777;SDS011;63298;53.164;8.610;2023-07-16T10:30:00;4.00;;;2.33;;
74777;SDS011;63298;53.164;8.610;2023-07-16T10:32:27;3.35;;;1.95;;
74777;SDS011;63298;53.164;8.610;2023-07-16T10:34:53;2.35;;;1.58;;
74777;SDS011;63298;53.164;8.610;2023-07-16T10:37:19;3.08;;;2.00;;
74777;SDS011;63298;53.164;8.610;2023-07-16T10:39:48;3.92;;;2.13;;
74777;SDS011;63298;53.164;8.610;2023-07-16T10:42:17;4.63;;;2.25;;
74777;SDS011;63298;53.164;8.610;2023-07-16T10:44:45;5.28;;;1.92;;
74777;SDS011;63298;53.164;8.610;2023-07-16T10:47:23;4.50;;;1.63;;
74777;SDS011;63298;53.164;8.610;2023-07-16T10:50:06;3.55;;;1.90;;
74777;SDS011;63298;53.164;8.610;2023-07-16T10:52:34;2.75;;;1.80;;
74777;SDS011;63298;53.164;8.610;2023-07-16T10:55:03;4.05;;;1.65;;
74777;SDS011;63298;53.164;8.610;2023-07-16T10:57:28;4.20;;;1.95;;
74777;SDS011;63298;53.164;8.610;2023-07-16T10:59:55;3.35;;;2.00;;
74777;SDS011;63298;53.164;8.610;2023-07-16T11:02:22;4.85;;;2.28;;
74777;SDS011;63298;53.164;8.610;2023-07-16T11:04:49;6.10;;;2.08;;
74777;SDS011;63298;53.164;8.610;2023-07-16T11:07:15;4.00;;;2.08;;
74777;SDS011;63298;53.164;8.610;2023-07-16T11:09:48;2.50;;;2.00;;
74777;SDS011;63298;53.164;8.610;2023-07-16T11:12:14;4.28;;;1.95;;
74777;SDS011;63298;53.164;8.610;2023-07-16T11:14:42;3.78;;;2.30;;
74777;SDS011;63298;53.164;8.610;2023-07-16T11:17:09;7.28;;;2.45;;
74777;SDS011;63298;53.164;8.610;2023-07-16T11:19:36;3.03;;;2.08;;
74777;SDS011;63298;53.164;8.610;2023-07-16T11:22:03;2.95;;;2.17;;
74777;SDS011;63298;53.164;8.610;2023-07-16T11:24:40;6.93;;;2.22;;
74777;SDS011;63298;53.164;8.610;2023-07-16T11:29:39;3.03;;;1.90;;
74777;SDS011;63298;53.164;8.610;2023-07-16T11:32:09;4.78;;;2.28;;
74777;SDS011;63298;53.164;8.610;2023-07-16T11:34:35;3.28;;;2.20;;
74777;SDS011;63298;53.164;8.610;2023-07-16T11:37:10;4.85;;;2.28;;
74777;SDS011;63298;53.164;8.610;2023-07-16T11:39:36;3.85;;;2.33;;
74777;SDS011;63298;53.164;8.610;2023-07-16T11:42:02;4.45;;;2.45;;
74777;SDS011;63298;53.164;8.610;2023-07-16T11:44:35;5.47;;;2.10;;
74777;SDS011;63298;53.164;8.610;2023-07-16T11:47:01;5.13;;;2.47;;
74777;SDS011;63298;53.164;8.610;2023-07-16T11:49:28;9.02;;;2.83;;
74777;SDS011;63298;53.164;8.610;2023-07-16T11:51:53;3.67;;;2.28;;
74777;SDS011;63298;53.164;8.610;2023-07-16T11:54:19;10.25;;;2.08;;
74777;SDS011;63298;53.164;8.610;2023-07-16T11:56:44;3.53;;;2.10;;
74777;SDS011;63298;53.164;8.610;2023-07-16T11:59:09;5.13;;;2.17;;
74777;SDS011;63298;53.164;8.610;2023-07-16T12:01:35;7.38;;;2.20;;
74777;SDS011;63298;53.164;8.610;2023-07-16T12:04:01;3.88;;;2.10;;
74777;SDS011;63298;53.164;8.610;2023-07-16T12:06:26;6.63;;;2.50;;
74777;SDS011;63298;53.164;8.610;2023-07-16T12:08:52;5.18;;;2.10;;
74777;SDS011;63298;53.164;8.610;2023-07-16T12:11:17;3.58;;;2.22;;
74777;SDS011;63298;53.164;8.610;2023-07-16T12:13:42;3.08;;;2.10;;
74777;SDS011;63298;53.164;8.610;2023-07-16T12:16:08;8.15;;;2.60;;
74777;SDS011;63298;53.164;8.610;2023-07-16T12:18:33;3.55;;;2.33;;
74777;SDS011;63298;53.164;8.610;2023-07-16T12:20:59;3.70;;;2.38;;
74777;SDS011;63298;53.164;8.610;2023-07-16T12:23:24;4.43;;;2.20;;
74777;SDS011;63298;53.164;8.610;2023-07-16T12:25:50;3.63;;;2.05;;
74777;SDS011;63298;53.164;8.610;2023-07-16T12:28:15;4.53;;;2.38;;
74777;SDS011;63298;53.164;8.610;2023-07-16T12:30:41;3.10;;;1.88;;
74777;SDS011;63298;53.164;8.610;2023-07-16T12:33:06;3.40;;;2.15;;
74777;SDS011;63298;53.164;8.610;2023-07-16T12:35:31;3.47;;;2.35;;
74777;SDS011;63298;53.164;8.610;2023-07-16T12:37:57;6.53;;;2.78;;
74777;SDS011;63298;53.164;8.610;2023-07-16T12:40:22;2.35;;;1.98;;
74777;SDS011;63298;53.164;8.610;2023-07-16T12:42:48;2.65;;;1.85;;
74777;SDS011;63298;53.164;8.610;2023-07-16T12:45:13;7.13;;;2.40;;
74777;SDS011;63298;53.164;8.610;2023-07-16T12:47:38;2.97;;;2.13;;
74777;SDS011;63298;53.164;8.610;2023-07-16T12:50:04;4.53;;;2.70;;
74777;SDS011;63298;53.164;8.610;2023-07-16T12:52:30;3.28;;;2.17;;
74777;SDS011;63298;53.164;8.610;2023-07-16T12:54:55;4.47;;;2.10;;
74777;SDS011;63298;53.164;8.610;2023-07-16T12:57:21;2.75;;;2.17;;
74777;SDS011;63298;53.164;8.610;2023-07-16T12:59:46;5.82;;;2.47;;
74777;SDS011;63298;53.164;8.610;2023-07-16T13:02:12;3.22;;;2.20;;
74777;SDS011;63298;53.164;8.610;2023-07-16T13:04:37;4.47;;;2.30;;
74777;SDS011;63298;53.164;8.610;2023-07-16T13:07:03;2.83;;;2.22;;
74777;SDS011;63298;53.164;8.610;2023-07-16T13:09:28;2.97;;;1.98;;
74777;SDS011;63298;53.164;8.610;2023-07-16T13:11:54;4.80;;;2.17;;
74777;SDS011;63298;53.164;8.610;2023-07-16T13:14:19;5.95;;;2.40;;
74777;SDS011;63298;53.164;8.610;2023-07-16T13:16:45;4.35;;;2.00;;
74777;SDS011;63298;53.164;8.610;2023-07-16T13:19:10;6.35;;;2.40;;
74777;SDS011;63298;53.164;8.610;2023-07-16T13:21:35;4.10;;;2.28;;
74777;SDS011;63298;53.164;8.610;2023-07-16T13:24:02;7.03;;;2.97;;
74777;SDS011;63298;53.164;8.610;2023-07-16T13:26:27;5.50;;;2.45;;
74777;SDS011;63298;53.164;8.610;2023-07-16T13:28:53;3.38;;;2.42;;
74777;SDS011;63298;53.164;8.610;2023-07-16T13:31:19;4.22;;;2.50;;
74777;SDS011;63298;53.164;8.610;2023-07-16T13:33:44;5.93;;;2.17;;
74777;SDS011;63298;53.164;8.610;2023-07-16T13:36:09;3.80;;;1.90;;
74777;SDS011;63298;53.164;8.610;2023-07-16T13:38:35;4.70;;;2.67;;
74777;SDS011;63298;53.164;8.610;2023-07-16T13:41:03;5.63;;;2.17;;
74777;SDS011;63298;53.164;8.610;2023-07-16T13:43:29;5.53;;;2.70;;
74777;SDS011;63298;53.164;8.610;2023-07-16T13:45:54;6.07;;;2.40;;
74777;SDS011;63298;53.164;8.610;2023-07-16T13:48:20;5.22;;;2.22;;
74777;SDS011;63298;53.164;8.610;2023-07-16T13:50:45;5.57;;;2.22;;
74777;SDS011;63298;53.164;8.610;2023-07-16T13:53:14;4.63;;;2.50;;
74777;SDS011;63298;53.164;8.610;2023-07-16T13:55:39;3.63;;;2.20;;
74777;SDS011;63298;53.164;8.610;2023-07-16T13:58:05;6.05;;;2.50;;
74777;SDS011;63298;53.164;8.610;2023-07-16T14:00:30;4.90;;;2.00;;
74777;SDS011;63298;53.164;8.610;2023-07-16T14:02:56;2.67;;;2.15;;
74777;SDS011;63298;53.164;8.610;2023-07-16T14:05:21;5.93;;;2.75;;
74777;SDS011;63298;53.164;8.610;2023-07-16T14:07:47;6.50;;;2.55;;
74777;SDS011;63298;53.164;8.610;2023-07-16T14:10:12;3.92;;;2.40;;
74777;SDS011;63298;53.164;8.610;2023-07-16T14:12:37;4.03;;;2.55;;
74777;SDS011;63298;53.164;8.610;2023-07-16T14:15:03;5.65;;;2.38;;
74777;SDS011;63298;53.164;8.610;2023-07-16T14:17:29;3.58;;;2.17;;
74777;SDS011;63298;53.164;8.610;2023-07-16T14:19:54;5.18;;;2.55;;
74777;SDS011;63298;53.164;8.610;2023-07-16T14:22:20;4.53;;;2.53;;
74777;SDS011;63298;53.164;8.610;2023-07-16T14:24:45;4.72;;;2.20;;
74777;SDS011;63298;53.164;8.610;2023-07-16T14:27:10;4.88;;;2.25;;
74777;SDS011;63298;53.164;8.610;2023-07-16T14:29:36;6.75;;;2.20;;
74777;SDS011;63298;53.164;8.610;2023-07-16T14:32:01;4.13;;;2.20;;
74777;SDS011;63298;53.164;8.610;2023-07-16T14:34:26;2.60;;;2.17;;
74777;SDS011;63298;53.164;8.610;2023-07-16T14:36:52;4.63;;;1.65;;
74777;SDS011;63298;53.164;8.610;2023-07-16T14:39:18;4.35;;;2.28;;
74777;SDS011;63298;53.164;8.610;2023-07-16T14:41:55;4.13;;;2.47;;
74777;SDS011;63298;53.164;8.610;2023-07-16T14:44:35;3.60;;;2.40;;
74777;SDS011;63298;53.164;8.610;2023-07-16T14:47:00;4.13;;;2.40;;
74777;SDS011;63298;53.164;8.610;2023-07-16T14:49:29;3.90;;;2.55;;
74777;SDS011;63298;53.164;8.610;2023-07-16T14:51:54;4.00;;;2.45;;
74777;SDS011;63298;53.164;8.610;2023-07-16T14:54:19;3.70;;;2.60;;
74777;SDS011;63298;53.164;8.610;2023-07-16T14:56:45;5.60;;;2.60;;
74777;SDS011;63298;53.164;8.610;2023-07-16T14:59:10;4.07;;;2.35;;
74777;SDS011;63298;53.164;8.610;2023-07-16T15:01:35;3.75;;;2.15;;
74777;SDS011;63298;53.164;8.610;2023-07-16T15:04:01;5.10;;;2.20;;